createdAt,value
2018-04-08T00:02:24.669Z,100649.90
2018-04-08T00:04:51.788Z,100645.50
2018-04-08T00:07:21.588Z,100636.73
2018-04-08T00:09:48.212Z,100640.62
2018-04-08T00:12:14.903Z,100633.56
2018-04-08T00:14:41.613Z,100632.48
2018-04-08T00:17:11.876Z,100636.13
2018-04-08T00:19:38.529Z,100631.20
2018-04-08T00:22:05.204Z,100635.33
2018-04-08T00:24:31.868Z,100627.24
2018-04-08T00:27:02.034Z,100631.87
2018-04-08T00:29:29.483Z,100634.55
2018-04-08T00:31:56.069Z,100631.46
2018-04-08T00:34:22.769Z,100628.20
2018-04-08T00:36:53.190Z,100622.84
2018-04-08T00:39:19.945Z,100620.11
2018-04-08T00:41:46.569Z,100620.48
2018-04-08T00:44:13.184Z,100623.09
2018-04-08T00:46:41.086Z,100624.33
2018-04-08T00:49:07.829Z,100627.25
2018-04-08T00:51:34.385Z,100625.83
2018-04-08T00:54:13.077Z,100618.97
2018-04-08T00:56:43.594Z,100618.81
2018-04-08T00:59:10.054Z,100624.14
2018-04-08T01:01:36.582Z,100622.09
2018-04-08T01:04:03.304Z,100622.56
2018-04-08T01:06:33.318Z,100624.66
2018-04-08T01:08:59.829Z,100621.17
2018-04-08T01:11:26.286Z,100626.11
2018-04-08T01:13:52.950Z,100625.67
2018-04-08T01:16:20.814Z,100633.95
2018-04-08T01:18:47.408Z,100626.97
2018-04-08T01:21:14.095Z,100632.22
2018-04-08T01:23:40.868Z,100644.98
2018-04-08T01:26:07.777Z,100645.14
2018-04-08T01:28:34.481Z,100648.21
2018-04-08T01:31:01.233Z,100645.20
2018-04-08T01:33:27.942Z,100654.20
2018-04-08T01:35:55.893Z,100666.27
2018-04-08T01:38:22.570Z,100661.56
2018-04-08T01:40:49.321Z,100680.42
2018-04-08T01:43:16.030Z,100672.50
2018-04-08T01:45:50.057Z,100680.95
2018-04-08T01:48:16.786Z,100687.19
2018-04-08T01:50:43.465Z,100683.66
2018-04-08T01:53:10.173Z,100685.97
2018-04-08T01:55:40.377Z,100688.60
2018-04-08T01:58:07.050Z,100689.17
2018-04-08T02:00:33.902Z,100688.89
2018-04-08T02:03:00.929Z,100689.88
2018-04-08T02:05:27.633Z,100688.91
2018-04-08T02:07:54.301Z,100691.20
2018-04-08T02:10:20.976Z,100688.19
2018-04-08T02:12:47.558Z,100691.53
2018-04-08T02:15:14.346Z,100691.70
2018-04-08T02:17:46.652Z,100693.78
2018-04-08T02:20:13.723Z,100697.39
2018-04-08T02:22:40.480Z,100700.61
2018-04-08T02:25:07.260Z,100693.50
2018-04-08T02:27:35.134Z,100696.16
2018-04-08T02:30:01.986Z,100689.38
2018-04-08T02:32:28.801Z,100683.52
2018-04-08T02:34:55.502Z,100685.37
2018-04-08T02:37:25.669Z,100679.16
2018-04-08T02:39:52.489Z,100681.01
2018-04-08T02:42:19.200Z,100681.06
2018-04-08T02:44:45.908Z,100675.63
2018-04-08T02:47:22.631Z,100676.12
2018-04-08T02:49:49.288Z,100679.59
2018-04-08T02:52:15.961Z,100694.89
2018-04-08T02:54:42.574Z,100695.86
2018-04-08T02:57:12.524Z,100700.05
2018-04-08T02:59:39.091Z,100706.11
2018-04-08T03:02:05.728Z,100714.45
2018-04-08T03:04:32.561Z,100707.82
2018-04-08T03:06:59.206Z,100718.94
2018-04-08T03:09:25.963Z,100727.12
2018-04-08T03:11:52.560Z,100730.67
2018-04-08T03:14:19.240Z,100732.42
2018-04-08T03:16:46.299Z,100742.67
2018-04-08T03:19:13.068Z,100743.70
2018-04-08T03:21:39.836Z,100742.05
2018-04-08T03:24:07.368Z,100751.16
2018-04-08T03:26:39.206Z,100744.19
2018-04-08T03:29:06.217Z,100753.11
2018-04-08T03:31:32.922Z,100742.39
2018-04-08T03:33:59.675Z,100747.41
2018-04-08T03:36:27.378Z,100753.06
2018-04-08T03:38:54.140Z,100755.30
2018-04-08T03:41:20.846Z,100762.45
2018-04-08T03:43:47.559Z,100762.26
2018-04-08T03:46:18.236Z,100766.27
2018-04-08T03:48:44.985Z,100768.61
2018-04-08T03:51:11.829Z,100775.00
2018-04-08T03:53:38.438Z,100776.02
2018-04-08T03:56:18.105Z,100775.81
2018-04-08T03:58:44.868Z,100775.58
2018-04-08T04:01:11.572Z,100782.50
2018-04-08T04:03:38.333Z,100782.45
2018-04-08T04:06:09.014Z,100778.94
2018-04-08T04:08:35.735Z,100787.20
2018-04-08T04:11:02.393Z,100785.57
2018-04-08T04:13:29.191Z,100771.38
2018-04-08T04:16:01.815Z,100777.18
2018-04-08T04:21:36.931Z,100774.34
2018-04-08T04:24:15.464Z,100786.97
2018-04-08T04:26:43.353Z,100786.09
2018-04-08T04:29:10.101Z,100782.92
2018-04-08T04:31:36.860Z,100783.78
2018-04-08T04:34:03.540Z,100787.77
2018-04-08T04:36:36.312Z,100782.00
2018-04-08T04:39:02.814Z,100792.19
2018-04-08T04:41:29.508Z,100781.10
2018-04-08T04:43:56.245Z,100794.34
2018-04-08T04:46:23.902Z,100792.92
2018-04-08T04:48:50.602Z,100791.21
2018-04-08T04:51:17.475Z,100798.35
2018-04-08T04:53:44.109Z,100794.33
2018-04-08T04:56:28.002Z,100796.05
2018-04-08T04:58:54.686Z,100797.59
2018-04-08T05:01:21.325Z,100795.05
2018-04-08T05:03:48.100Z,100796.06
2018-04-08T05:06:18.601Z,100795.44
2018-04-08T05:08:45.255Z,100785.50
2018-04-08T05:11:11.921Z,100793.23
2018-04-08T05:13:38.610Z,100789.16
2018-04-08T05:16:06.294Z,100776.86
2018-04-08T05:18:32.909Z,100787.69
2018-04-08T05:20:59.610Z,100781.01
2018-04-08T05:23:26.226Z,100780.38
2018-04-08T05:25:56.669Z,100780.48
2018-04-08T05:28:23.401Z,100773.38
2018-04-08T05:30:50.070Z,100779.23
2018-04-08T05:33:16.781Z,100780.19
2018-04-08T05:35:43.470Z,100779.31
2018-04-08T05:38:10.117Z,100781.13
2018-04-08T05:40:36.683Z,100784.56
2018-04-08T05:43:03.437Z,100778.08
2018-04-08T05:45:31.256Z,100784.58
2018-04-08T05:47:57.957Z,100780.40
2018-04-08T05:50:24.604Z,100777.77
2018-04-08T05:52:51.412Z,100780.53
2018-04-08T05:55:18.278Z,100785.31
2018-04-08T05:57:44.953Z,100782.66
2018-04-08T06:00:11.600Z,100772.65
2018-04-08T06:02:38.326Z,100776.64
2018-04-08T06:05:06.065Z,100777.84
2018-04-08T06:07:32.820Z,100782.48
2018-04-08T06:09:59.536Z,100784.33
2018-04-08T06:12:26.121Z,100781.81
2018-04-08T06:15:00.263Z,100783.27
2018-04-08T06:17:26.981Z,100780.25
2018-04-08T06:19:53.694Z,100778.02
2018-04-08T06:22:20.358Z,100782.46
2018-04-08T06:24:47.302Z,100783.01
2018-04-08T06:27:13.901Z,100789.37
2018-04-08T06:29:40.530Z,100784.73
2018-04-08T06:32:07.284Z,100780.09
2018-04-08T06:34:34.680Z,100790.17
2018-04-08T06:37:02.490Z,100788.42
2018-04-08T06:39:29.683Z,100786.91
2018-04-08T06:41:56.936Z,100788.26
2018-04-08T06:44:23.709Z,100787.64
2018-04-08T06:46:51.573Z,100785.59
2018-04-08T06:49:18.690Z,100793.91
2018-04-08T06:51:45.321Z,100804.59
2018-04-08T06:54:12.015Z,100801.09
2018-04-08T06:56:38.862Z,100799.14
2018-04-08T06:59:05.586Z,100799.59
2018-04-08T07:01:32.365Z,100803.30
2018-04-08T07:03:58.978Z,100798.34
2018-04-08T07:06:30.438Z,100804.80
2018-04-08T07:08:57.074Z,100804.54
2018-04-08T07:11:23.661Z,100800.25
2018-04-08T07:13:50.306Z,100810.13
2018-04-08T07:16:17.775Z,100815.09
2018-04-08T07:18:44.571Z,100814.84
2018-04-08T07:21:11.242Z,100818.24
2018-04-08T07:23:37.978Z,100809.79
2018-04-08T07:26:05.384Z,100816.72
2018-04-08T07:28:32.155Z,100823.16
2018-04-08T07:30:58.894Z,100821.91
2018-04-08T07:33:25.622Z,100828.20
2018-04-08T07:35:55.837Z,100819.61
2018-04-08T07:38:22.580Z,100820.85
2018-04-08T07:40:49.282Z,100816.41
2018-04-08T07:43:15.896Z,100818.08
2018-04-08T07:45:48.730Z,100814.53
2018-04-08T07:48:15.940Z,100819.24
2018-04-08T07:50:43.037Z,100820.14
2018-04-08T07:53:09.823Z,100821.69
2018-04-08T07:55:43.202Z,100820.89
2018-04-08T07:58:09.774Z,100818.09
2018-04-08T08:00:36.446Z,100823.98
2018-04-08T08:03:03.048Z,100825.11
2018-04-08T08:05:29.728Z,100826.58
2018-04-08T08:07:56.403Z,100822.92
2018-04-08T08:10:23.117Z,100815.67
2018-04-08T08:12:49.825Z,100823.46
2018-04-08T08:15:17.728Z,100829.09
2018-04-08T08:17:44.377Z,100821.99
2018-04-08T08:20:11.070Z,100825.09
2018-04-08T08:22:37.821Z,100814.83
2018-04-08T08:25:04.979Z,100807.91
2018-04-08T08:27:31.801Z,100817.61
2018-04-08T08:29:58.527Z,100811.84
2018-04-08T08:32:25.185Z,100809.27
2018-04-08T08:35:02.129Z,100810.59
2018-04-08T08:37:28.776Z,100818.06
2018-04-08T08:39:55.431Z,100808.37
2018-04-08T08:42:22.178Z,100807.20
2018-04-08T08:44:56.414Z,100812.97
2018-04-08T08:47:23.130Z,100797.27
2018-04-08T08:49:49.837Z,100801.06
2018-04-08T08:52:16.623Z,100793.08
2018-04-08T08:54:43.448Z,100800.70
2018-04-08T08:57:10.088Z,100797.20
2018-04-08T08:59:36.845Z,100785.62
2018-04-08T09:02:03.454Z,100784.80
2018-04-08T09:04:30.214Z,100785.20
2018-04-08T09:06:56.971Z,100781.28
2018-04-08T09:09:23.594Z,100777.98
2018-04-08T09:11:50.248Z,100784.11
2018-04-08T09:14:17.009Z,100789.12
2018-04-08T09:16:43.797Z,100772.64
2018-04-08T09:19:16.537Z,100771.91
2018-04-08T09:24:39.742Z,100776.59
2018-04-08T09:27:06.573Z,100784.48
2018-04-08T09:29:33.186Z,100777.70
2018-04-08T09:31:59.874Z,100787.58
2018-04-08T09:34:27.637Z,100783.34
2018-04-08T09:36:54.566Z,100776.43
2018-04-08T09:39:21.241Z,100779.34
2018-04-08T09:41:47.953Z,100779.80
2018-04-08T09:44:14.729Z,100768.31
2018-04-08T09:46:41.399Z,100782.02
2018-04-08T09:49:07.974Z,100778.22
2018-04-08T09:51:34.909Z,100772.15
2018-04-08T09:54:01.648Z,100772.96
2018-04-08T09:56:31.937Z,100779.59
2018-04-08T09:58:58.685Z,100775.86
2018-04-08T10:01:31.342Z,100778.26
2018-04-08T10:03:58.018Z,100768.23
2018-04-08T10:06:25.752Z,100769.38
2018-04-08T10:08:52.390Z,100772.37
2018-04-08T10:11:19.149Z,100778.42
2018-04-08T10:13:45.871Z,100777.13
2018-04-08T10:16:18.203Z,100772.61
2018-04-08T10:18:44.931Z,100772.87
2018-04-08T10:21:11.645Z,100765.54
2018-04-08T10:23:38.262Z,100766.24
2018-04-08T10:26:05.042Z,100756.52
2018-04-08T10:28:32.891Z,100772.42
2018-04-08T10:31:03.886Z,100766.16
2018-04-08T10:33:30.651Z,100761.28
2018-04-08T10:36:01.041Z,100771.09
2018-04-08T10:38:27.758Z,100756.75
2018-04-08T10:40:54.498Z,100762.72
2018-04-08T10:43:21.247Z,100770.18
2018-04-08T10:45:49.510Z,100764.58
2018-04-08T10:48:16.280Z,100761.63
2018-04-08T10:50:43.046Z,100760.27
2018-04-08T10:53:09.787Z,100760.02
2018-04-08T10:55:37.655Z,100757.69
2018-04-08T10:58:04.382Z,100758.66
2018-04-08T11:00:31.093Z,100760.62
2018-04-08T11:02:57.794Z,100753.92
2018-04-08T11:05:27.790Z,100738.70
2018-04-08T11:07:54.465Z,100757.06
2018-04-08T11:10:21.181Z,100760.00
2018-04-08T11:12:47.909Z,100752.73
2018-04-08T11:15:15.699Z,100749.51
2018-04-08T11:17:42.362Z,100735.72
2018-04-08T11:20:09.043Z,100744.11
2018-04-08T11:22:35.708Z,100748.05
2018-04-08T11:25:08.098Z,100732.94
2018-04-08T11:27:34.783Z,100728.98
2018-04-08T11:30:01.461Z,100730.59
2018-04-08T11:32:28.497Z,100731.11
2018-04-08T11:34:59.162Z,100709.67
2018-04-08T11:37:30.207Z,100713.28
2018-04-08T11:39:56.875Z,100709.23
2018-04-08T11:42:23.560Z,100709.75
2018-04-08T11:44:51.303Z,100711.27
2018-04-08T11:47:17.989Z,100711.27
2018-04-08T11:49:44.691Z,100716.62
2018-04-08T11:52:11.370Z,100703.70
2018-04-08T11:54:38.325Z,100713.83
2018-04-08T11:57:05.021Z,100710.39
2018-04-08T11:59:31.728Z,100696.02
2018-04-08T12:01:58.573Z,100706.35
2018-04-08T12:04:28.777Z,100690.61
2018-04-08T12:06:55.446Z,100691.01
2018-04-08T12:09:22.112Z,100692.27
2018-04-08T12:11:49.194Z,100699.39
2018-04-08T12:14:16.933Z,100700.98
2018-04-08T12:16:43.625Z,100690.31
2018-04-08T12:19:10.296Z,100675.89
2018-04-08T12:21:37.001Z,100696.59
2018-04-08T12:24:04.002Z,100694.86
2018-04-08T12:26:30.633Z,100705.63
2018-04-08T12:28:57.329Z,100697.28
2018-04-08T12:31:24.198Z,100687.99
2018-04-08T12:33:50.895Z,100701.09
2018-04-08T12:36:17.503Z,100695.29
2018-04-08T12:38:45.001Z,100691.95
2018-04-08T12:41:12.017Z,100699.17
2018-04-08T12:43:38.688Z,100687.89
2018-04-08T12:46:06.389Z,100675.25
2018-04-08T12:48:33.116Z,100685.38
2018-04-08T12:51:00.424Z,100698.34
2018-04-08T12:53:27.122Z,100695.19
2018-04-08T12:55:57.345Z,100694.76
2018-04-08T12:58:24.077Z,100710.09
2018-04-08T13:00:50.857Z,100696.54
2018-04-08T13:03:17.579Z,100698.91
2018-04-08T13:05:44.361Z,100700.59
2018-04-08T13:08:10.976Z,100692.20
2018-04-08T13:10:37.708Z,100706.20
2018-04-08T13:13:04.530Z,100715.44
2018-04-08T13:15:31.520Z,100707.05
2018-04-08T13:17:58.170Z,100724.62
2018-04-08T13:20:24.810Z,100725.05
2018-04-08T13:22:51.592Z,100737.43
2018-04-08T13:25:19.713Z,100710.44
2018-04-08T13:27:46.366Z,100723.34
2018-04-08T13:30:13.027Z,100708.73
2018-04-08T13:32:39.682Z,100702.32
2018-04-08T13:35:09.411Z,100709.66
2018-04-08T13:37:36.176Z,100701.25
2018-04-08T13:40:02.879Z,100697.81
2018-04-08T13:42:29.466Z,100690.07
2018-04-08T13:44:56.225Z,100684.20
2018-04-08T13:47:22.864Z,100684.35
2018-04-08T13:49:49.582Z,100695.77
2018-04-08T13:52:16.241Z,100694.42
2018-04-08T13:54:43.277Z,100701.95
2018-04-08T13:57:10.019Z,100694.55
2018-04-08T13:59:37.602Z,100690.59
2018-04-08T14:02:04.498Z,100704.94
2018-04-08T14:04:32.250Z,100706.03
2018-04-08T14:06:58.942Z,100690.44
2018-04-08T14:09:25.703Z,100698.50
2018-04-08T14:11:52.621Z,100692.83
2018-04-08T14:14:24.739Z,100693.75
2018-04-08T14:16:51.354Z,100698.00
2018-04-08T14:19:18.050Z,100700.31
2018-04-08T14:21:44.818Z,100689.27
2018-04-08T14:24:14.850Z,100689.82
2018-04-08T14:26:41.475Z,100691.10
2018-04-08T14:29:08.113Z,100683.91
2018-04-08T14:31:34.899Z,100681.05
2018-04-08T14:34:02.817Z,100677.13
2018-04-08T14:36:29.562Z,100678.92
2018-04-08T14:38:56.421Z,100675.64
2018-04-08T14:41:22.970Z,100677.11
2018-04-08T14:43:53.152Z,100685.17
2018-04-08T14:46:19.805Z,100684.91
2018-04-08T14:48:46.561Z,100682.50
2018-04-08T14:51:14.629Z,100688.86
2018-04-08T14:53:41.452Z,100696.34
2018-04-08T14:56:09.242Z,100692.39
2018-04-08T14:58:35.901Z,100701.37
2018-04-08T15:01:02.620Z,100691.17
2018-04-08T15:03:29.355Z,100682.23
2018-04-08T15:05:56.175Z,100687.95
2018-04-08T15:08:22.882Z,100676.57
2018-04-08T15:10:49.667Z,100676.84
2018-04-08T15:13:16.432Z,100671.52
2018-04-08T15:15:46.835Z,100674.10
2018-04-08T15:18:14.061Z,100681.05
2018-04-08T15:20:40.753Z,100674.20
2018-04-08T15:23:07.541Z,100673.70
2018-04-08T15:25:37.935Z,100669.03
2018-04-08T15:28:04.632Z,100663.66
2018-04-08T15:30:31.398Z,100681.14
2018-04-08T15:32:58.213Z,100673.09
2018-04-08T15:35:25.900Z,100671.44
2018-04-08T15:37:52.491Z,100670.30
2018-04-08T15:40:19.083Z,100665.63
2018-04-08T15:42:45.854Z,100673.09
2018-04-08T15:45:15.685Z,100675.31
2018-04-08T15:47:42.609Z,100682.83
2018-04-08T15:50:09.404Z,100674.73
2018-04-08T15:52:36.046Z,100696.02
2018-04-08T15:55:02.766Z,100690.07
2018-04-08T15:57:29.410Z,100692.36
2018-04-08T15:59:56.169Z,100696.75
2018-04-08T16:02:22.833Z,100701.84
2018-04-08T16:04:49.614Z,100697.72
2018-04-08T16:07:16.367Z,100701.83
2018-04-08T16:09:43.131Z,100692.78
2018-04-08T16:12:09.809Z,100706.50
2018-04-08T16:14:39.957Z,100702.41
2018-04-08T16:17:06.596Z,100709.47
2018-04-08T16:19:33.226Z,100707.30
2018-04-08T16:21:59.918Z,100710.09
2018-04-08T16:24:30.258Z,100712.44
2018-04-08T16:26:56.898Z,100714.48
2018-04-08T16:29:23.565Z,100718.44
2018-04-08T16:31:50.371Z,100711.97
2018-04-08T16:34:23.651Z,100714.11
2018-04-08T16:36:50.374Z,100722.20
2018-04-08T16:39:17.087Z,100716.02
2018-04-08T16:41:43.681Z,100714.45
2018-04-08T16:44:11.470Z,100717.45
2018-04-08T16:46:38.143Z,100719.83
2018-04-08T16:49:04.853Z,100729.20
2018-04-08T16:51:31.570Z,100725.39
2018-04-08T16:54:01.356Z,100725.33
2018-04-08T16:56:28.056Z,100727.65
2018-04-08T16:58:54.969Z,100725.09
2018-04-08T17:01:21.640Z,100723.72
2018-04-08T17:03:48.430Z,100728.74
2018-04-08T17:06:15.147Z,100721.89
2018-04-08T17:08:41.794Z,100723.27
2018-04-08T17:11:08.375Z,100721.65
2018-04-08T17:13:38.727Z,100728.20
2018-04-08T17:16:05.630Z,100729.66
2018-04-08T17:18:32.404Z,100729.08
2018-04-08T17:20:59.153Z,100739.49
2018-04-08T17:23:26.118Z,100742.39
2018-04-08T17:25:52.962Z,100734.20
2018-04-08T17:28:19.554Z,100746.67
2018-04-08T17:30:46.239Z,100744.64
2018-04-08T17:33:13.233Z,100744.81
2018-04-08T17:35:39.919Z,100747.77
2018-04-08T17:38:06.634Z,100748.47
2018-04-08T17:40:33.278Z,100753.74
2018-04-08T17:42:59.959Z,100754.48
2018-04-08T17:45:26.749Z,100758.92
2018-04-08T17:47:53.494Z,100763.45
2018-04-08T17:50:20.194Z,100758.47
2018-04-08T17:52:46.878Z,100763.73
2018-04-08T17:55:18.210Z,100755.80
2018-04-08T17:57:44.861Z,100757.83
2018-04-08T18:00:12.229Z,100757.69
2018-04-08T18:02:38.909Z,100766.27
2018-04-08T18:05:09.133Z,100766.06
2018-04-08T18:07:35.906Z,100769.95
2018-04-08T18:10:02.699Z,100770.54
2018-04-08T18:12:29.898Z,100775.61
2018-04-08T18:14:56.780Z,100773.06
2018-04-08T18:17:23.477Z,100774.96
2018-04-08T18:19:50.230Z,100773.44
2018-04-08T18:22:16.961Z,100772.52
2018-04-08T18:24:43.624Z,100773.66
2018-04-08T18:27:10.261Z,100772.64
2018-04-08T18:29:37.145Z,100772.84
2018-04-08T18:32:04.825Z,100773.78
2018-04-08T18:34:31.655Z,100778.16
2018-04-08T18:36:58.384Z,100768.06
2018-04-08T18:39:25.084Z,100768.70
2018-04-08T18:41:51.745Z,100761.52
2018-04-08T18:44:19.425Z,100766.00
2018-04-08T18:46:46.101Z,100764.77
2018-04-08T18:49:12.879Z,100762.72
2018-04-08T18:51:39.531Z,100754.84
2018-04-08T18:54:07.328Z,100748.58
2018-04-08T18:56:34.034Z,100748.10
2018-04-08T18:59:01.890Z,100749.39
2018-04-08T19:01:28.808Z,100750.25
2018-04-08T19:04:00.860Z,100753.83
2018-04-08T19:06:27.510Z,100747.55
2018-04-08T19:08:54.165Z,100750.57
2018-04-08T19:11:21.391Z,100746.78
2018-04-08T19:13:51.489Z,100756.53
2018-04-08T19:16:18.217Z,100754.33
2018-04-08T19:18:45.534Z,100751.38
2018-04-08T19:21:12.382Z,100757.05
2018-04-08T19:23:39.557Z,100757.83
2018-04-08T19:26:06.234Z,100751.80
2018-04-08T19:28:32.887Z,100756.47
2018-04-08T19:30:59.661Z,100755.06
2018-04-08T19:33:26.389Z,100759.52
2018-04-08T19:35:53.097Z,100756.05
2018-04-08T19:38:19.771Z,100755.77
2018-04-08T19:40:46.509Z,100757.34
2018-04-08T19:43:14.402Z,100756.42
2018-04-08T19:45:41.117Z,100761.44
2018-04-08T19:48:07.805Z,100763.64
2018-04-08T19:50:34.512Z,100769.80
2018-04-08T19:53:02.865Z,100768.49
2018-04-08T19:55:29.558Z,100770.73
2018-04-08T19:57:56.315Z,100759.89
2018-04-08T20:00:23.120Z,100757.11
2018-04-08T20:02:49.715Z,100760.31
2018-04-08T20:05:16.469Z,100762.39
2018-04-08T20:07:43.091Z,100753.78
2018-04-08T20:10:09.721Z,100754.66
2018-04-08T20:12:36.385Z,100755.86
2018-04-08T20:15:03.061Z,100752.84
2018-04-08T20:17:29.922Z,100744.78
2018-04-08T20:25:26.358Z,100753.70
2018-04-08T20:27:52.957Z,100748.77
2018-04-08T20:30:20.415Z,100744.17
2018-04-08T20:32:47.262Z,100744.41
2018-04-08T20:35:15.167Z,100735.08
2018-04-08T20:37:41.881Z,100732.14
2018-04-08T20:40:08.698Z,100735.21
2018-04-08T20:42:35.403Z,100731.44
2018-04-08T20:45:01.986Z,100734.88
2018-04-08T20:47:28.636Z,100727.58
2018-04-08T20:49:55.389Z,100723.76
2018-04-08T20:52:22.082Z,100724.01
2018-04-08T20:54:54.988Z,100717.72
2018-04-08T20:57:21.533Z,100716.56
2018-04-08T20:59:49.336Z,100715.69
2018-04-08T21:02:15.913Z,100709.77
2018-04-08T21:04:48.545Z,100704.09
2018-04-08T21:07:15.352Z,100706.64
2018-04-08T21:09:42.057Z,100704.76
2018-04-08T21:12:08.777Z,100705.91
2018-04-08T21:14:40.100Z,100707.21
2018-04-08T21:17:06.865Z,100708.27
2018-04-08T21:19:33.594Z,100704.36
2018-04-08T21:22:00.500Z,100716.53
2018-04-08T21:24:27.775Z,100711.82
2018-04-08T21:26:54.529Z,100723.16
2018-04-08T21:29:21.178Z,100710.05
2018-04-08T21:31:47.850Z,100711.91
2018-04-08T21:34:20.655Z,100710.38
2018-04-08T21:36:47.347Z,100717.79
2018-04-08T21:39:14.078Z,100714.95
2018-04-08T21:41:40.801Z,100711.14
2018-04-08T21:44:20.438Z,100713.89
2018-04-08T21:46:47.948Z,100713.64
2018-04-08T21:49:14.638Z,100709.55
2018-04-08T21:51:41.334Z,100708.48
2018-04-08T21:54:08.272Z,100705.99
2018-04-08T21:56:35.069Z,100706.81
2018-04-08T21:59:01.690Z,100694.30
2018-04-08T22:01:28.350Z,100699.78
2018-04-08T22:03:56.036Z,100693.42
2018-04-08T22:06:22.800Z,100691.07
2018-04-08T22:08:49.401Z,100685.25
2018-04-08T22:11:15.977Z,100679.76
2018-04-08T22:13:46.650Z,100676.91
2018-04-08T22:16:13.366Z,100671.75
2018-04-08T22:18:40.086Z,100665.78
2018-04-08T22:21:06.763Z,100664.73
2018-04-08T22:23:37.879Z,100660.72
2018-04-08T22:26:04.519Z,100658.92
2018-04-08T22:28:31.086Z,100654.36
2018-04-08T22:30:57.784Z,100652.72
2018-04-08T22:33:24.718Z,100648.06
2018-04-08T22:35:51.876Z,100645.48
2018-04-08T22:38:18.529Z,100641.69
2018-04-08T22:40:45.077Z,100636.44
2018-04-08T22:43:15.538Z,100633.14
2018-04-08T22:45:42.097Z,100637.86
2018-04-08T22:48:08.694Z,100631.61
2018-04-08T22:50:35.370Z,100632.41
2018-04-08T22:53:02.390Z,100630.06
2018-04-08T22:55:29.015Z,100628.38
2018-04-08T22:57:55.644Z,100626.27
2018-04-08T23:00:25.309Z,100629.59
2018-04-08T23:02:52.877Z,100620.21
2018-04-08T23:05:19.559Z,100615.10
2018-04-08T23:07:46.260Z,100607.59
2018-04-08T23:10:13.041Z,100612.77
2018-04-08T23:12:43.177Z,100606.26
2018-04-08T23:15:09.756Z,100597.75
2018-04-08T23:17:36.465Z,100597.73
2018-04-08T23:20:03.028Z,100597.88
2018-04-08T23:22:37.177Z,100597.73
2018-04-08T23:25:03.873Z,100589.91
2018-04-08T23:27:30.487Z,100579.50
2018-04-08T23:29:57.202Z,100586.55
2018-04-08T23:32:23.861Z,100583.52
2018-04-08T23:34:50.516Z,100573.10
2018-04-08T23:37:17.222Z,100573.75
2018-04-08T23:39:43.794Z,100568.96
2018-04-08T23:42:10.428Z,100565.17
2018-04-08T23:44:37.073Z,100561.05
2018-04-08T23:47:03.799Z,100560.27
2018-04-08T23:49:30.474Z,100564.50
2018-04-08T23:51:57.139Z,100569.31
2018-04-08T23:54:30.538Z,100569.77
2018-04-08T23:56:57.261Z,100565.31
2018-04-08T23:59:23.976Z,100568.96
